Time;durP1;ratioP1;P1;durP2;ratioP2;P2;SDS_P1;SDS_P2;PMS_P1;PMS_P2;Temp;Humidity;BMP_temperature;BMP_pressure;BME280_temperature;BME280_humidity;BME280_pressure;Samples;Min_cycle;Max_cycle;Signal;HPM_P1;HPM_P2
2023/10/15 00:02:25;;;;;;;2.80;1.33;;;;;;;;;;4934490;29;20186;-74
2023/10/15 00:04:50;;;;;;;5.40;1.37;;;;;;;;;;4948927;28;20323;-75
2023/10/15 00:07:15;;;;;;;3.27;1.37;;;;;;;;;;4952719;28;20221;-74
2023/10/15 00:09:41;;;;;;;2.47;1.43;;;;;;;;;;4932691;28;20231;-74
2023/10/15 00:12:06;;;;;;;2.40;1.30;;;;;;;;;;4953779;28;20199;-75
2023/10/15 00:14:31;;;;;;;2.27;1.37;;;;;;;;;;4935876;28;20174;-75
2023/10/15 00:16:59;;;;;;;3.53;1.40;;;;;;;;;;4950616;28;20184;-75
2023/10/15 00:19:24;;;;;;;2.17;1.20;;;;;;;;;;4951931;28;20230;-75
2023/10/15 00:21:50;;;;;;;5.70;1.70;;;;;;;;;;4952472;28;20186;-74
2023/10/15 00:24:15;;;;;;;1.23;1.13;;;;;;;;;;4936461;28;20210;-74
2023/10/15 00:26:41;;;;;;;2.17;1.20;;;;;;;;;;4937070;29;20185;-74
2023/10/15 00:29:09;;;;;;;4.37;2.03;;;;;;;;;;4939039;29;20185;-74
2023/10/15 00:31:34;;;;;;;3.30;1.40;;;;;;;;;;4938497;28;20212;-74
2023/10/15 00:34:00;;;;;;;3.63;1.37;;;;;;;;;;4939063;28;20193;-74
2023/10/15 00:36:26;;;;;;;6.90;1.60;;;;;;;;;;4941309;28;20178;-74
2023/10/15 00:38:51;;;;;;;5.33;1.50;;;;;;;;;;4939682;28;20181;-74
2023/10/15 00:41:17;;;;;;;4.97;2.50;;;;;;;;;;4944818;28;20192;-75
2023/10/15 00:43:52;;;;;;;3.40;1.60;;;;;;;;;;4942754;28;20200;-74
2023/10/15 00:46:18;;;;;;;2.80;1.60;;;;;;;;;;4954709;28;20215;-75
2023/10/15 00:48:43;;;;;;;5.00;1.80;;;;;;;;;;4954757;28;20181;-74
2023/10/15 00:51:11;;;;;;;5.97;1.70;;;;;;;;;;4957018;28;20292;-75
2023/10/15 00:53:45;;;;;;;5.33;1.97;;;;;;;;;;4960594;28;20182;-75
2023/10/15 00:56:12;;;;;;;5.50;2.67;;;;;;;;;;4938629;28;20188;-74
2023/10/15 01:03:52;;;;;;;5.20;1.53;;;;;;;;;;4954970;28;20185;-75
2023/10/15 01:06:26;;;;;;;5.50;1.60;;;;;;;;;;4950559;28;20175;-74
2023/10/15 01:08:51;;;;;;;2.63;1.40;;;;;;;;;;4936132;28;20225;-74
2023/10/15 01:11:19;;;;;;;2.57;1.50;;;;;;;;;;4954040;28;20213;-74
2023/10/15 01:13:44;;;;;;;4.13;1.73;;;;;;;;;;4935335;28;20197;-74
2023/10/15 01:16:13;;;;;;;3.73;1.40;;;;;;;;;;4957191;28;20173;-75
2023/10/15 01:18:38;;;;;;;4.10;1.73;;;;;;;;;;4954142;28;20251;-75
2023/10/15 01:21:05;;;;;;;6.57;2.10;;;;;;;;;;4948051;28;20264;-74
2023/10/15 01:23:44;;;;;;;7.03;1.70;;;;;;;;;;4933986;28;20183;-74
2023/10/15 01:26:16;;;;;;;4.80;1.60;;;;;;;;;;4953805;28;20264;-74
2023/10/15 01:28:43;;;;;;;4.17;1.60;;;;;;;;;;4938250;28;20203;-74
2023/10/15 01:31:08;;;;;;;4.90;1.57;;;;;;;;;;4951421;28;20193;-75
2023/10/15 01:33:46;;;;;;;3.20;1.67;;;;;;;;;;4947790;28;20232;-75
2023/10/15 01:36:47;;;;;;;4.03;1.60;;;;;;;;;;4932707;28;20193;-75
2023/10/15 01:39:12;;;;;;;5.47;2.10;;;;;;;;;;4946022;28;20189;-74
2023/10/15 01:41:41;;;;;;;4.13;2.47;;;;;;;;;;4951413;28;20178;-75
2023/10/15 01:44:07;;;;;;;4.73;1.60;;;;;;;;;;4936908;28;20185;-75
2023/10/15 01:49:09;;;;;;;6.07;1.77;;;;;;;;;;4954859;28;20169;-74
2023/10/15 01:51:40;;;;;;;4.60;1.60;;;;;;;;;;4952626;28;20265;-74
2023/10/15 01:54:09;;;;;;;4.93;1.77;;;;;;;;;;4954237;28;20168;-75
2023/10/15 01:56:36;;;;;;;2.37;1.80;;;;;;;;;;4936408;28;20182;-74
2023/10/15 01:59:07;;;;;;;5.10;1.83;;;;;;;;;;4943052;28;20177;-75
2023/10/15 02:01:37;;;;;;;2.90;1.80;;;;;;;;;;4944878;28;20187;-75
2023/10/15 02:04:02;;;;;;;4.67;1.67;;;;;;;;;;4953287;28;20178;-75
2023/10/15 02:06:30;;;;;;;6.23;2.60;;;;;;;;;;4950434;28;20464;-74
2023/10/15 02:08:56;;;;;;;5.63;2.20;;;;;;;;;;4950365;28;20237;-74
2023/10/15 02:11:21;;;;;;;3.67;2.07;;;;;;;;;;4957908;28;20658;-74
2023/10/15 02:13:47;;;;;;;4.77;2.07;;;;;;;;;;4937484;28;20272;-75
2023/10/15 02:16:17;;;;;;;4.33;2.13;;;;;;;;;;4934310;29;20181;-75
2023/10/15 02:18:44;;;;;;;5.70;1.60;;;;;;;;;;4953818;28;20178;-74
2023/10/15 02:21:10;;;;;;;4.27;1.63;;;;;;;;;;4950414;28;20188;-75
2023/10/15 02:23:36;;;;;;;1.60;1.40;;;;;;;;;;4931320;28;20186;-75
2023/10/15 02:26:01;;;;;;;2.93;1.53;;;;;;;;;;4952191;28;20199;-74
2023/10/15 02:28:27;;;;;;;3.53;2.03;;;;;;;;;;4937728;28;20188;-75
2023/10/15 02:31:06;;;;;;;4.47;1.77;;;;;;;;;;4950613;28;20206;-75
2023/10/15 02:33:35;;;;;;;4.33;1.57;;;;;;;;;;4933391;28;20233;-75
2023/10/15 02:36:06;;;;;;;1.93;1.73;;;;;;;;;;4934358;28;20233;-75
2023/10/15 02:38:36;;;;;;;3.57;1.77;;;;;;;;;;4953616;28;20177;-74
2023/10/15 02:43:27;;;;;;;2.40;1.50;;;;;;;;;;4954679;28;20186;-75
2023/10/15 02:45:53;;;;;;;4.40;1.50;;;;;;;;;;4927134;28;20186;-75
2023/10/15 02:48:22;;;;;;;5.23;1.90;;;;;;;;;;4938531;28;20181;-74
2023/10/15 02:51:00;;;;;;;4.20;1.80;;;;;;;;;;4949237;28;20206;-74
2023/10/15 02:53:33;;;;;;;5.43;2.20;;;;;;;;;;4937814;29;20260;-75
2023/10/15 02:55:59;;;;;;;2.87;1.53;;;;;;;;;;4937421;28;20187;-75
2023/10/15 02:58:30;;;;;;;5.27;1.80;;;;;;;;;;4948961;28;20173;-75
2023/10/15 03:00:59;;;;;;;2.03;1.50;;;;;;;;;;4952222;28;20297;-74
2023/10/15 03:03:32;;;;;;;3.83;1.77;;;;;;;;;;4935555;29;20252;-75
2023/10/15 03:05:58;;;;;;;4.83;2.93;;;;;;;;;;4950487;28;20196;-76
2023/10/15 03:08:23;;;;;;;4.13;1.77;;;;;;;;;;4950674;28;20235;-75
2023/10/15 03:10:55;;;;;;;3.10;1.80;;;;;;;;;;4951992;28;20202;-74
2023/10/15 03:13:21;;;;;;;5.60;1.80;;;;;;;;;;4949986;28;20200;-75
2023/10/15 03:15:48;;;;;;;2.80;2.00;;;;;;;;;;4951008;28;20209;-75
2023/10/15 03:18:21;;;;;;;4.23;2.47;;;;;;;;;;4936788;29;20188;-75
2023/10/15 03:20:49;;;;;;;13.13;1.73;;;;;;;;;;4950134;28;20240;-75
2023/10/15 03:23:17;;;;;;;3.77;2.00;;;;;;;;;;4951186;28;20222;-75
2023/10/15 03:25:42;;;;;;;3.27;2.10;;;;;;;;;;4937665;29;20182;-75
2023/10/15 03:28:10;;;;;;;6.33;1.97;;;;;;;;;;4935496;28;20174;-75
2023/10/15 03:30:44;;;;;;;4.07;1.77;;;;;;;;;;4938991;28;20204;-75
2023/10/15 03:33:09;;;;;;;3.53;1.80;;;;;;;;;;4932087;29;20208;-75
2023/10/15 03:35:38;;;;;;;4.00;1.90;;;;;;;;;;4953767;28;20181;-74
2023/10/15 03:38:13;;;;;;;5.13;2.00;;;;;;;;;;4938678;28;20181;-75
2023/10/15 03:40:43;;;;;;;4.83;1.67;;;;;;;;;;4949824;28;20212;-74
2023/10/15 03:43:15;;;;;;;2.90;2.30;;;;;;;;;;4935483;28;20185;-74
2023/10/15 03:45:50;;;;;;;4.13;2.20;;;;;;;;;;4932945;28;20225;-75
2023/10/15 03:48:16;;;;;;;4.17;2.27;;;;;;;;;;4949381;28;20178;-75
2023/10/15 03:50:53;;;;;;;1.67;1.57;;;;;;;;;;4948823;28;20208;-76
2023/10/15 03:53:20;;;;;;;3.87;1.70;;;;;;;;;;4937792;28;20177;-74
2023/10/15 03:55:49;;;;;;;2.00;1.80;;;;;;;;;;4951847;28;20177;-75
2023/10/15 03:58:15;;;;;;;3.00;1.67;;;;;;;;;;4949039;28;20177;-74
2023/10/15 04:00:46;;;;;;;4.27;3.37;;;;;;;;;;4937152;29;20178;-75
2023/10/15 04:03:31;;;;;;;3.67;1.83;;;;;;;;;;4937756;28;20186;-75
2023/10/15 04:06:06;;;;;;;3.00;2.00;;;;;;;;;;4936101;28;20191;-74
2023/10/15 04:08:34;;;;;;;5.23;2.47;;;;;;;;;;4938648;29;20239;-74
2023/10/15 04:11:00;;;;;;;3.93;2.60;;;;;;;;;;4935857;28;20213;-74
2023/10/15 04:13:28;;;;;;;4.03;2.37;;;;;;;;;;4953893;28;20229;-76
2023/10/15 04:15:54;;;;;;;5.20;2.30;;;;;;;;;;4954249;28;20250;-74
2023/10/15 04:18:23;;;;;;;4.17;2.47;;;;;;;;;;4954048;28;20222;-74
2023/10/15 04:20:52;;;;;;;7.57;2.70;;;;;;;;;;4938093;28;20193;-76
2023/10/15 04:23:34;;;;;;;5.83;3.90;;;;;;;;;;4940122;28;20181;-74
2023/10/15 04:26:12;;;;;;;5.33;3.80;;;;;;;;;;4934236;28;20182;-74
2023/10/15 04:28:38;;;;;;;5.57;3.17;;;;;;;;;;4952645;28;20186;-75
2023/10/15 04:31:11;;;;;;;5.80;3.30;;;;;;;;;;4934567;28;20291;-75
2023/10/15 04:33:36;;;;;;;8.83;4.17;;;;;;;;;;4942051;29;20177;-75
2023/10/15 04:36:08;;;;;;;7.57;3.60;;;;;;;;;;4937230;28;20197;-74
2023/10/15 04:38:33;;;;;;;4.87;3.30;;;;;;;;;;4953658;28;20193;-74
2023/10/15 04:43:28;;;;;;;4.83;3.90;;;;;;;;;;4953777;28;20233;-75
2023/10/15 04:45:56;;;;;;;7.30;3.63;;;;;;;;;;4939888;28;20177;-75
2023/10/15 04:48:30;;;;;;;5.47;4.10;;;;;;;;;;4957322;28;20169;-75
2023/10/15 04:51:01;;;;;;;5.60;4.00;;;;;;;;;;4945546;28;20259;-74
2023/10/15 04:53:30;;;;;;;5.43;4.07;;;;;;;;;;4955636;28;20187;-74
2023/10/15 04:55:56;;;;;;;6.70;4.60;;;;;;;;;;4957676;28;20181;-75
2023/10/15 04:58:24;;;;;;;5.00;4.50;;;;;;;;;;4936142;28;20184;-74
2023/10/15 05:00:49;;;;;;;5.77;4.27;;;;;;;;;;4957521;28;20186;-74
2023/10/15 05:03:15;;;;;;;5.03;4.53;;;;;;;;;;4955411;28;20174;-74
2023/10/15 05:05:42;;;;;;;8.13;4.93;;;;;;;;;;4941816;29;20184;-75
2023/10/15 05:08:10;;;;;;;8.43;4.63;;;;;;;;;;4934140;28;20259;-75
2023/10/15 05:10:37;;;;;;;11.07;4.97;;;;;;;;;;4938801;29;20182;-75
2023/10/15 05:13:02;;;;;;;8.57;4.60;;;;;;;;;;4936036;28;20237;-74
2023/10/15 05:15:28;;;;;;;5.27;3.60;;;;;;;;;;4938838;29;20269;-74
2023/10/15 05:17:53;;;;;;;7.73;4.23;;;;;;;;;;4953724;28;20185;-75
2023/10/15 05:20:20;;;;;;;6.60;4.67;;;;;;;;;;4954375;28;20177;-76
2023/10/15 05:22:46;;;;;;;5.70;4.60;;;;;;;;;;4957181;28;20189;-74
2023/10/15 05:25:17;;;;;;;7.13;5.13;;;;;;;;;;4938116;28;20249;-75
2023/10/15 05:27:45;;;;;;;8.73;5.83;;;;;;;;;;4952717;28;20174;-74
2023/10/15 05:30:12;;;;;;;8.67;6.13;;;;;;;;;;4952381;28;20226;-74
2023/10/15 05:32:37;;;;;;;7.47;6.73;;;;;;;;;;4954106;28;20193;-74
2023/10/15 05:35:02;;;;;;;11.53;7.40;;;;;;;;;;4935824;28;20192;-74
2023/10/15 05:37:28;;;;;;;10.23;6.77;;;;;;;;;;4936580;29;20182;-75
2023/10/15 05:39:53;;;;;;;12.77;7.80;;;;;;;;;;4950985;28;20270;-75
2023/10/15 05:42:18;;;;;;;10.40;7.67;;;;;;;;;;4936573;28;20374;-75
2023/10/15 05:44:44;;;;;;;11.33;8.10;;;;;;;;;;4943715;29;20201;-74
2023/10/15 05:47:09;;;;;;;8.03;7.23;;;;;;;;;;4933390;28;20190;-74
2023/10/15 05:49:36;;;;;;;14.17;7.07;;;;;;;;;;4952501;28;20177;-74
2023/10/15 05:52:01;;;;;;;10.53;8.00;;;;;;;;;;4950658;28;20276;-74
2023/10/15 05:54:26;;;;;;;12.17;8.10;;;;;;;;;;4935320;29;20181;-74
2023/10/15 05:56:52;;;;;;;10.30;7.80;;;;;;;;;;4929446;28;20174;-74
2023/10/15 05:59:18;;;;;;;9.97;8.20;;;;;;;;;;4931974;28;20181;-74
2023/10/15 06:01:44;;;;;;;11.60;7.90;;;;;;;;;;4933591;29;20241;-75
2023/10/15 06:04:09;;;;;;;12.13;7.40;;;;;;;;;;4932552;28;20289;-74
2023/10/15 06:06:36;;;;;;;11.97;7.63;;;;;;;;;;4949815;28;20247;-75
2023/10/15 06:09:02;;;;;;;9.50;7.20;;;;;;;;;;4953709;28;20221;-74
2023/10/15 06:11:27;;;;;;;10.63;6.80;;;;;;;;;;4933301;28;20211;-74
2023/10/15 06:13:53;;;;;;;10.53;7.20;;;;;;;;;;4951215;28;20228;-75
2023/10/15 06:16:18;;;;;;;10.80;7.20;;;;;;;;;;4948583;28;20182;-74
2023/10/15 06:18:43;;;;;;;8.97;5.97;;;;;;;;;;4937819;28;20255;-75
2023/10/15 06:21:09;;;;;;;10.67;6.23;;;;;;;;;;4933431;28;20216;-74
2023/10/15 06:23:34;;;;;;;6.70;6.03;;;;;;;;;;4933513;28;20184;-75
2023/10/15 06:25:59;;;;;;;10.23;4.83;;;;;;;;;;4934888;29;20291;-74
2023/10/15 06:28:25;;;;;;;7.40;6.77;;;;;;;;;;4928652;28;20221;-75
2023/10/15 06:30:51;;;;;;;8.87;5.07;;;;;;;;;;4949771;28;20232;-75
2023/10/15 06:33:18;;;;;;;10.50;5.53;;;;;;;;;;4948410;28;20201;-74
2023/10/15 06:35:43;;;;;;;5.43;4.83;;;;;;;;;;4932002;28;20197;-75
2023/10/15 06:38:08;;;;;;;6.07;5.13;;;;;;;;;;4933218;28;20201;-74
2023/10/15 06:40:36;;;;;;;6.77;4.77;;;;;;;;;;4937451;28;20178;-75
2023/10/15 06:43:02;;;;;;;6.83;4.70;;;;;;;;;;4952880;28;20177;-75
2023/10/15 06:45:28;;;;;;;6.27;4.30;;;;;;;;;;4951427;28;20176;-75
2023/10/15 06:47:53;;;;;;;5.43;4.00;;;;;;;;;;4934056;28;20177;-74
2023/10/15 06:50:19;;;;;;;4.70;3.97;;;;;;;;;;4951221;28;20276;-74
2023/10/15 06:52:44;;;;;;;6.53;3.93;;;;;;;;;;4934383;28;20198;-75
2023/10/15 06:55:13;;;;;;;5.33;3.40;;;;;;;;;;4936500;28;20180;-74
2023/10/15 06:57:39;;;;;;;4.83;3.40;;;;;;;;;;4932895;28;20186;-74
2023/10/15 07:00:08;;;;;;;6.07;2.83;;;;;;;;;;4953179;28;20209;-74
2023/10/15 07:02:33;;;;;;;3.97;3.00;;;;;;;;;;4951272;28;20169;-75
2023/10/15 07:05:00;;;;;;;4.43;3.33;;;;;;;;;;4932282;28;20249;-75
2023/10/15 07:07:26;;;;;;;6.57;3.27;;;;;;;;;;4952836;28;20201;-75
2023/10/15 07:09:52;;;;;;;6.47;2.80;;;;;;;;;;4951703;28;20181;-75
2023/10/15 07:12:17;;;;;;;3.20;2.53;;;;;;;;;;4953908;28;20300;-75
2023/10/15 07:14:42;;;;;;;4.10;3.57;;;;;;;;;;4941316;28;20180;-75
2023/10/15 07:17:07;;;;;;;6.33;3.37;;;;;;;;;;4954964;28;20256;-75
2023/10/15 07:19:33;;;;;;;7.07;3.87;;;;;;;;;;4955307;28;20557;-75
2023/10/15 07:21:59;;;;;;;5.33;3.10;;;;;;;;;;4949948;28;20182;-76
2023/10/15 07:24:24;;;;;;;5.57;2.73;;;;;;;;;;4957454;28;20178;-74
2023/10/15 07:26:49;;;;;;;2.67;2.33;;;;;;;;;;4950029;28;20201;-74
2023/10/15 07:29:14;;;;;;;4.20;2.43;;;;;;;;;;4954465;28;20185;-75
2023/10/15 07:31:40;;;;;;;3.57;2.77;;;;;;;;;;4935140;29;20254;-75
2023/10/15 07:34:05;;;;;;;7.17;3.23;;;;;;;;;;4938750;28;20181;-75
2023/10/15 07:36:31;;;;;;;6.40;3.10;;;;;;;;;;4959335;28;20189;-75
2023/10/15 07:38:57;;;;;;;5.97;2.97;;;;;;;;;;4954681;28;20233;-74
2023/10/15 07:41:22;;;;;;;2.73;2.53;;;;;;;;;;4945954;28;20272;-75
2023/10/15 07:43:48;;;;;;;6.67;3.70;;;;;;;;;;4940777;28;20399;-74
2023/10/15 07:46:13;;;;;;;5.50;2.80;;;;;;;;;;4955111;28;20183;-75
2023/10/15 07:48:38;;;;;;;6.00;2.93;;;;;;;;;;4947097;28;20430;-74
2023/10/15 07:51:03;;;;;;;7.00;3.10;;;;;;;;;;4955602;28;20489;-75
2023/10/15 07:53:29;;;;;;;6.50;2.83;;;;;;;;;;4957837;28;20166;-76
2023/10/15 07:55:55;;;;;;;10.97;3.70;;;;;;;;;;4936729;28;20182;-75
2023/10/15 07:58:21;;;;;;;5.33;2.87;;;;;;;;;;4961910;28;20173;-74
2023/10/15 08:00:47;;;;;;;2.20;1.90;;;;;;;;;;4943482;29;20179;-75
2023/10/15 08:03:12;;;;;;;5.27;2.57;;;;;;;;;;4939314;28;20207;-74
2023/10/15 08:05:39;;;;;;;4.67;2.27;;;;;;;;;;4954829;28;20245;-75
2023/10/15 08:08:04;;;;;;;5.47;3.83;;;;;;;;;;4940509;28;20235;-75
2023/10/15 08:10:34;;;;;;;5.80;2.20;;;;;;;;;;4956200;28;20174;-75
2023/10/15 08:12:59;;;;;;;5.00;2.90;;;;;;;;;;4937770;28;20181;-75
2023/10/15 08:15:24;;;;;;;5.23;2.40;;;;;;;;;;4941551;28;20229;-75
2023/10/15 08:17:50;;;;;;;2.90;2.43;;;;;;;;;;4964444;28;20268;-75
2023/10/15 08:20:15;;;;;;;3.87;2.73;;;;;;;;;;4954154;28;20243;-75
2023/10/15 08:22:40;;;;;;;7.30;2.43;;;;;;;;;;4942981;28;20172;-75
2023/10/15 08:25:18;;;;;;;7.63;3.43;;;;;;;;;;4957601;28;20187;-76
2023/10/15 08:27:44;;;;;;;7.67;2.90;;;;;;;;;;4940329;28;20236;-76
2023/10/15 08:30:13;;;;;;;6.27;2.43;;;;;;;;;;4941093;29;20185;-75
2023/10/15 08:32:39;;;;;;;5.43;2.70;;;;;;;;;;4957902;28;20197;-76
2023/10/15 08:35:05;;;;;;;7.37;2.77;;;;;;;;;;4942544;28;20216;-75
2023/10/15 08:37:30;;;;;;;4.00;2.80;;;;;;;;;;4939017;28;20181;-74
2023/10/15 08:39:55;;;;;;;8.23;3.40;;;;;;;;;;4952167;28;20193;-75
2023/10/15 08:42:25;;;;;;;5.70;3.00;;;;;;;;;;4942180;28;20267;-75
2023/10/15 08:44:54;;;;;;;7.27;3.77;;;;;;;;;;4956159;28;20197;-75
2023/10/15 08:47:19;;;;;;;4.03;3.47;;;;;;;;;;4955016;28;20240;-75
2023/10/15 08:49:51;;;;;;;5.67;3.30;;;;;;;;;;4939790;29;20249;-75
2023/10/15 08:52:17;;;;;;;6.60;3.60;;;;;;;;;;4954956;28;20196;-75
2023/10/15 08:54:43;;;;;;;4.53;2.63;;;;;;;;;;4939748;29;20178;-75
2023/10/15 08:57:09;;;;;;;6.20;3.37;;;;;;;;;;4961177;28;20179;-75
2023/10/15 08:59:35;;;;;;;5.87;3.33;;;;;;;;;;4940601;28;20308;-75
2023/10/15 09:02:05;;;;;;;4.13;3.20;;;;;;;;;;4959823;28;20177;-74
2023/10/15 09:04:31;;;;;;;5.67;3.70;;;;;;;;;;4942418;29;20185;-76
2023/10/15 09:07:01;;;;;;;3.90;3.17;;;;;;;;;;4958334;28;20215;-75
2023/10/15 09:09:26;;;;;;;4.90;2.97;;;;;;;;;;4956953;28;20221;-75
2023/10/15 09:11:54;;;;;;;5.63;3.97;;;;;;;;;;4940282;28;20234;-75
2023/10/15 09:14:35;;;;;;;5.97;3.37;;;;;;;;;;4939457;28;20169;-74
2023/10/15 09:17:00;;;;;;;7.47;3.17;;;;;;;;;;4938135;28;20177;-75
2023/10/15 09:19:26;;;;;;;25.07;14.70;;;;;;;;;;4938878;29;20180;-75
2023/10/15 09:21:52;;;;;;;24.63;13.00;;;;;;;;;;4940214;28;20177;-75
2023/10/15 09:24:20;;;;;;;7.13;3.87;;;;;;;;;;4936122;29;20181;-76
2023/10/15 09:26:45;;;;;;;3.03;2.20;;;;;;;;;;4956669;28;20175;-74
2023/10/15 09:29:19;;;;;;;4.57;2.63;;;;;;;;;;4952016;28;20188;-74
2023/10/15 09:31:45;;;;;;;5.03;3.47;;;;;;;;;;4953943;28;20268;-75
2023/10/15 09:34:14;;;;;;;4.80;2.40;;;;;;;;;;4934160;28;20182;-75
2023/10/15 09:36:39;;;;;;;4.57;2.50;;;;;;;;;;4952212;28;20238;-76
2023/10/15 09:39:12;;;;;;;4.30;2.43;;;;;;;;;;4934893;28;20261;-75
2023/10/15 09:41:37;;;;;;;5.87;2.10;;;;;;;;;;4941489;29;20209;-75
2023/10/15 09:44:06;;;;;;;4.13;2.00;;;;;;;;;;4936893;28;20182;-76
2023/10/15 09:46:31;;;;;;;3.40;1.73;;;;;;;;;;4952057;28;20178;-75
2023/10/15 09:48:57;;;;;;;5.40;2.00;;;;;;;;;;4946850;28;20257;-75
2023/10/15 09:51:23;;;;;;;4.30;1.97;;;;;;;;;;4939346;28;20203;-75
2023/10/15 09:53:50;;;;;;;1.80;1.43;;;;;;;;;;4930196;28;20232;-75
2023/10/15 09:56:15;;;;;;;5.43;2.13;;;;;;;;;;4952144;28;20231;-76
2023/10/15 09:58:40;;;;;;;2.50;2.20;;;;;;;;;;4937106;29;20183;-75
2023/10/15 10:01:08;;;;;;;2.60;1.67;;;;;;;;;;4951347;28;20202;-75
2023/10/15 10:03:49;;;;;;;4.23;2.00;;;;;;;;;;4942667;28;20179;-76
2023/10/15 10:06:31;;;;;;;4.93;2.43;;;;;;;;;;4958398;28;20189;-75
2023/10/15 10:08:56;;;;;;;5.33;2.60;;;;;;;;;;4955388;28;20265;-75
2023/10/15 10:11:45;;;;;;;3.50;1.60;;;;;;;;;;4927231;29;20233;-76
2023/10/15 10:14:25;;;;;;;3.23;1.77;;;;;;;;;;4931417;29;20232;-76
2023/10/15 10:16:51;;;;;;;3.20;1.97;;;;;;;;;;4919329;29;20226;-75
2023/10/15 10:19:17;;;;;;;3.17;1.60;;;;;;;;;;4943054;29;20172;-74
2023/10/15 10:21:46;;;;;;;2.67;1.53;;;;;;;;;;4916965;29;20178;-74
2023/10/15 10:24:12;;;;;;;3.83;2.10;;;;;;;;;;4920174;29;20197;-75
2023/10/15 10:26:39;;;;;;;4.87;2.33;;;;;;;;;;4934276;29;20248;-75
2023/10/15 10:29:06;;;;;;;4.03;1.97;;;;;;;;;;4935891;29;20270;-74
2023/10/15 10:31:34;;;;;;;3.80;2.20;;;;;;;;;;4922987;29;20208;-74
2023/10/15 10:34:03;;;;;;;4.97;1.50;;;;;;;;;;4917100;29;20207;-75
2023/10/15 10:36:30;;;;;;;4.20;1.57;;;;;;;;;;4932449;29;20506;-77
2023/10/15 10:38:57;;;;;;;3.27;1.37;;;;;;;;;;4932005;29;20186;-75
2023/10/15 10:41:30;;;;;;;3.20;1.60;;;;;;;;;;4923126;29;20188;-75
2023/10/15 10:43:55;;;;;;;3.00;1.60;;;;;;;;;;4927686;29;20186;-75
2023/10/15 10:46:21;;;;;;;1.80;1.63;;;;;;;;;;4930541;29;20171;-75
2023/10/15 10:49:07;;;;;;;9.67;1.97;;;;;;;;;;4947780;28;20269;-75
2023/10/15 10:51:35;;;;;;;3.50;1.40;;;;;;;;;;4915879;29;20305;-75
2023/10/15 10:54:02;;;;;;;1.63;1.40;;;;;;;;;;4932029;29;20266;-75
2023/10/15 10:56:40;;;;;;;3.47;1.57;;;;;;;;;;4932659;29;20268;-74
2023/10/15 10:59:09;;;;;;;2.80;1.50;;;;;;;;;;4946287;28;20175;-74
2023/10/15 11:01:41;;;;;;;1.87;1.50;;;;;;;;;;4922729;29;20270;-75
2023/10/15 11:04:07;;;;;;;2.07;1.53;;;;;;;;;;4921590;29;20190;-75
2023/10/15 11:06:33;;;;;;;2.87;1.60;;;;;;;;;;4936568;29;20179;-74
2023/10/15 11:08:58;;;;;;;5.07;1.60;;;;;;;;;;4940198;28;20233;-74
2023/10/15 11:11:26;;;;;;;3.60;2.13;;;;;;;;;;4945391;28;20241;-74
2023/10/15 11:13:51;;;;;;;2.13;1.67;;;;;;;;;;4943156;28;20201;-74
2023/10/15 11:16:16;;;;;;;3.90;2.10;;;;;;;;;;4936977;28;20177;-73
2023/10/15 11:18:45;;;;;;;2.87;1.43;;;;;;;;;;4936330;28;20184;-73
2023/10/15 11:21:10;;;;;;;3.43;1.50;;;;;;;;;;4937848;28;20185;-74
2023/10/15 11:23:35;;;;;;;3.23;1.70;;;;;;;;;;4933160;28;20179;-71
2023/10/15 11:26:00;;;;;;;3.27;1.90;;;;;;;;;;4939245;29;20174;-71
2023/10/15 11:28:26;;;;;;;2.33;1.70;;;;;;;;;;4944346;28;20189;-71
2023/10/15 11:30:51;;;;;;;2.00;1.53;;;;;;;;;;4937809;28;20186;-70
2023/10/15 11:33:17;;;;;;;2.10;1.70;;;;;;;;;;4950593;28;20185;-70
2023/10/15 11:35:45;;;;;;;3.73;1.97;;;;;;;;;;4955362;28;20182;-71
2023/10/15 11:38:10;;;;;;;3.97;2.10;;;;;;;;;;4951821;28;20200;-71
2023/10/15 11:40:39;;;;;;;2.03;1.50;;;;;;;;;;4938947;28;20244;-71
2023/10/15 11:43:19;;;;;;;2.00;1.60;;;;;;;;;;4950044;28;20179;-72
2023/10/15 11:45:48;;;;;;;3.93;1.87;;;;;;;;;;4940656;28;20170;-71
2023/10/15 11:48:13;;;;;;;1.70;1.60;;;;;;;;;;4935100;28;20214;-71
2023/10/15 11:50:40;;;;;;;3.77;1.80;;;;;;;;;;4952674;28;20209;-72
2023/10/15 11:53:06;;;;;;;4.40;1.93;;;;;;;;;;4936865;28;20200;-72
2023/10/15 11:55:33;;;;;;;4.13;1.90;;;;;;;;;;4956014;28;20173;-71
2023/10/15 11:58:10;;;;;;;4.20;1.97;;;;;;;;;;4953385;28;20218;-72
2023/10/15 12:00:39;;;;;;;1.47;1.37;;;;;;;;;;4957386;28;20167;-72
2023/10/15 12:03:05;;;;;;;2.00;1.80;;;;;;;;;;4940497;29;20260;-72
2023/10/15 12:05:34;;;;;;;3.13;1.03;;;;;;;;;;4955087;28;20176;-72
2023/10/15 12:08:03;;;;;;;3.73;1.73;;;;;;;;;;4945843;28;20231;-72
2023/10/15 12:10:28;;;;;;;3.40;1.97;;;;;;;;;;4956001;28;20208;-72
2023/10/15 12:12:54;;;;;;;3.67;1.80;;;;;;;;;;4949116;28;20223;-72
2023/10/15 12:15:19;;;;;;;2.17;1.40;;;;;;;;;;4953168;28;20180;-71
2023/10/15 12:17:44;;;;;;;4.90;1.33;;;;;;;;;;4957308;28;20177;-71
2023/10/15 12:20:12;;;;;;;2.43;1.23;;;;;;;;;;4953592;28;20180;-71
2023/10/15 12:22:37;;;;;;;2.30;1.40;;;;;;;;;;4957458;28;20196;-72
2023/10/15 12:25:03;;;;;;;1.33;1.23;;;;;;;;;;4942570;29;20259;-71
2023/10/15 12:27:28;;;;;;;2.80;1.17;;;;;;;;;;4940712;28;20274;-71
2023/10/15 12:29:57;;;;;;;1.47;1.37;;;;;;;;;;4945884;28;20185;-72
2023/10/15 12:32:22;;;;;;;2.50;1.20;;;;;;;;;;4957822;28;20266;-71
2023/10/15 12:34:48;;;;;;;1.73;1.20;;;;;;;;;;4958147;28;20186;-72
2023/10/15 12:37:14;;;;;;;1.00;1.00;;;;;;;;;;4944741;28;20189;-71
2023/10/15 12:39:45;;;;;;;2.10;1.40;;;;;;;;;;4962871;28;20176;-72
2023/10/15 12:42:13;;;;;;;1.80;1.40;;;;;;;;;;4959429;28;20181;-72
2023/10/15 12:44:44;;;;;;;2.53;1.37;;;;;;;;;;4942702;28;20210;-71
2023/10/15 12:47:09;;;;;;;2.73;1.60;;;;;;;;;;4955398;28;20216;-72
2023/10/15 12:49:35;;;;;;;4.47;1.50;;;;;;;;;;4957988;28;20219;-72
2023/10/15 12:52:02;;;;;;;3.50;1.30;;;;;;;;;;4937351;28;20229;-72
2023/10/15 12:54:28;;;;;;;2.23;1.30;;;;;;;;;;4953649;28;20180;-72
2023/10/15 12:56:55;;;;;;;1.17;0.90;;;;;;;;;;4937157;28;20232;-72
2023/10/15 12:59:20;;;;;;;1.43;0.70;;;;;;;;;;4951627;28;20262;-72
2023/10/15 13:01:46;;;;;;;2.57;1.07;;;;;;;;;;4957095;28;20281;-71
2023/10/15 13:04:12;;;;;;;1.00;0.90;;;;;;;;;;4954211;28;20192;-72
2023/10/15 13:06:37;;;;;;;1.57;1.00;;;;;;;;;;4940198;28;20205;-72
2023/10/15 13:09:08;;;;;;;1.43;1.00;;;;;;;;;;4961638;28;20227;-72
2023/10/15 13:11:37;;;;;;;1.27;0.90;;;;;;;;;;4953428;28;20257;-72
2023/10/15 13:14:02;;;;;;;1.97;1.30;;;;;;;;;;4940049;29;20188;-72
2023/10/15 13:16:28;;;;;;;1.87;1.30;;;;;;;;;;4952001;28;20248;-71
2023/10/15 13:18:53;;;;;;;2.07;1.10;;;;;;;;;;4936649;28;20187;-72
2023/10/15 13:21:18;;;;;;;1.30;1.00;;;;;;;;;;4954138;28;20204;-71
2023/10/15 13:23:44;;;;;;;0.77;0.77;;;;;;;;;;4957275;28;20224;-72
2023/10/15 13:26:09;;;;;;;1.50;1.17;;;;;;;;;;4955947;28;20177;-72
2023/10/15 13:28:34;;;;;;;1.00;1.00;;;;;;;;;;4935860;28;20186;-72
2023/10/15 13:31:00;;;;;;;2.20;1.20;;;;;;;;;;4957896;28;20251;-72
2023/10/15 13:33:25;;;;;;;1.60;1.17;;;;;;;;;;4944544;28;20185;-72
2023/10/15 13:35:50;;;;;;;1.03;0.97;;;;;;;;;;4938418;28;20192;-71
2023/10/15 13:38:15;;;;;;;2.53;1.33;;;;;;;;;;4941584;28;20199;-72
2023/10/15 13:40:41;;;;;;;2.20;1.13;;;;;;;;;;4952523;28;20231;-72
2023/10/15 13:43:08;;;;;;;1.73;1.13;;;;;;;;;;4961891;28;20179;-72
2023/10/15 13:45:33;;;;;;;2.13;1.20;;;;;;;;;;4940242;28;20187;-71
2023/10/15 13:47:58;;;;;;;2.07;1.03;;;;;;;;;;4935142;29;20192;-73
2023/10/15 13:50:23;;;;;;;3.27;1.40;;;;;;;;;;4953659;28;20248;-73
2023/10/15 13:52:48;;;;;;;2.13;1.00;;;;;;;;;;4938922;28;20298;-73
2023/10/15 13:55:15;;;;;;;2.43;1.23;;;;;;;;;;4942905;28;20199;-73
2023/10/15 13:57:40;;;;;;;1.47;1.00;;;;;;;;;;4937662;28;20186;-72
2023/10/15 14:00:11;;;;;;;5.27;1.20;;;;;;;;;;4949467;28;20484;-71
2023/10/15 14:02:36;;;;;;;0.83;0.70;;;;;;;;;;4951817;28;20261;-72
2023/10/15 14:05:05;;;;;;;2.23;1.47;;;;;;;;;;4951049;28;20208;-71
2023/10/15 14:07:30;;;;;;;1.60;0.90;;;;;;;;;;4957842;28;20306;-72
2023/10/15 14:09:55;;;;;;;0.80;0.80;;;;;;;;;;4950792;28;20213;-72
2023/10/15 14:12:20;;;;;;;2.03;1.10;;;;;;;;;;4938279;28;20217;-72
2023/10/15 14:14:47;;;;;;;3.87;1.30;;;;;;;;;;4942319;29;20262;-72
2023/10/15 14:17:12;;;;;;;1.43;1.10;;;;;;;;;;4952816;28;20240;-73
2023/10/15 14:19:38;;;;;;;1.23;1.13;;;;;;;;;;4953418;28;20264;-72
2023/10/15 14:22:04;;;;;;;1.73;1.20;;;;;;;;;;4939583;28;20904;-72
2023/10/15 14:24:29;;;;;;;1.20;1.10;;;;;;;;;;4943586;28;20292;-72
2023/10/15 14:26:55;;;;;;;2.77;1.20;;;;;;;;;;4957851;28;20260;-73
2023/10/15 14:29:20;;;;;;;1.83;0.83;;;;;;;;;;4940289;28;20275;-72
2023/10/15 14:31:45;;;;;;;1.20;1.03;;;;;;;;;;4953638;28;20202;-72
2023/10/15 14:34:10;;;;;;;3.60;1.40;;;;;;;;;;4931824;28;20249;-73
2023/10/15 14:36:39;;;;;;;1.10;1.00;;;;;;;;;;4955210;28;20173;-72
2023/10/15 14:39:06;;;;;;;4.00;1.10;;;;;;;;;;4951112;28;20241;-72
2023/10/15 14:41:31;;;;;;;1.00;0.90;;;;;;;;;;4952503;28;20191;-72
2023/10/15 14:43:57;;;;;;;1.17;0.80;;;;;;;;;;4932145;28;20174;-72
2023/10/15 14:46:22;;;;;;;1.20;1.10;;;;;;;;;;4953385;28;20200;-73
2023/10/15 14:48:47;;;;;;;1.43;1.20;;;;;;;;;;4956013;28;20204;-73
2023/10/15 14:51:13;;;;;;;1.10;1.00;;;;;;;;;;4926758;28;20292;-72
2023/10/15 14:53:39;;;;;;;1.30;0.90;;;;;;;;;;4929044;29;20183;-72
2023/10/15 14:56:04;;;;;;;2.13;1.40;;;;;;;;;;4942898;28;20208;-71
2023/10/15 14:58:29;;;;;;;2.40;1.17;;;;;;;;;;4933332;28;20204;-72